sensor_id;sensor_type;location;lat;lon;timestamp;pressure;altitude;pressure_sealevel;temperature;humidity
26823;BME280;14852;51.910;8.878;2023-02-23T00:01:43;99378.34;;;11.58;61.00
26823;BME280;14852;51.910;8.878;2023-02-23T00:04:09;99373.69;;;11.64;61.06
26823;BME280;14852;51.910;8.878;2023-02-23T00:06:36;99372.56;;;11.68;60.67
26823;BME280;14852;51.910;8.878;2023-02-23T00:09:04;99370.69;;;11.70;60.84
26823;BME280;14852;51.910;8.878;2023-02-23T00:11:54;99377.31;;;11.75;61.01
26823;BME280;14852;51.910;8.878;2023-02-23T00:14:24;99366.69;;;11.78;61.17
26823;BME280;14852;51.910;8.878;2023-02-23T00:16:53;99379.63;;;11.80;61.27
26823;BME280;14852;51.910;8.878;2023-02-23T00:19:18;99383.72;;;11.84;61.16
26823;BME280;14852;51.910;8.878;2023-02-23T00:21:44;99379.25;;;11.86;61.14
26823;BME280;14852;51.910;8.878;2023-02-23T00:24:12;99381.63;;;11.89;60.73
26823;BME280;14852;51.910;8.878;2023-02-23T00:26:40;99389.34;;;11.90;61.16
26823;BME280;14852;51.910;8.878;2023-02-23T00:29:16;99380.34;;;11.96;61.10
26823;BME280;14852;51.910;8.878;2023-02-23T00:31:44;99385.44;;;11.98;61.05
26823;BME280;14852;51.910;8.878;2023-02-23T00:34:13;99373.97;;;12.00;60.83
26823;BME280;14852;51.910;8.878;2023-02-23T00:36:39;99380.84;;;12.01;61.30
26823;BME280;14852;51.910;8.878;2023-02-23T00:39:09;99382.44;;;12.04;61.26
26823;BME280;14852;51.910;8.878;2023-02-23T00:41:49;99381.50;;;12.05;60.92
26823;BME280;14852;51.910;8.878;2023-02-23T00:44:17;99384.84;;;12.07;61.49
26823;BME280;14852;51.910;8.878;2023-02-23T00:46:44;99382.25;;;12.07;60.96
26823;BME280;14852;51.910;8.878;2023-02-23T00:49:13;99383.81;;;12.09;61.48
26823;BME280;14852;51.910;8.878;2023-02-23T00:51:40;99382.25;;;12.07;61.01
26823;BME280;14852;51.910;8.878;2023-02-23T00:54:07;99379.63;;;12.07;61.52
26823;BME280;14852;51.910;8.878;2023-02-23T00:56:32;99389.31;;;12.05;61.41
26823;BME280;14852;51.910;8.878;2023-02-23T00:58:58;99392.75;;;12.05;61.57
26823;BME280;14852;51.910;8.878;2023-02-23T01:01:25;99391.81;;;12.06;61.46
26823;BME280;14852;51.910;8.878;2023-02-23T01:03:51;99390.78;;;12.09;61.42
26823;BME280;14852;51.910;8.878;2023-02-23T01:06:20;99397.69;;;12.10;61.66
26823;BME280;14852;51.910;8.878;2023-02-23T01:08:49;99401.00;;;12.12;61.69
26823;BME280;14852;51.910;8.878;2023-02-23T01:11:26;99399.88;;;12.16;61.09
26823;BME280;14852;51.910;8.878;2023-02-23T01:13:59;99401.56;;;12.17;61.44
26823;BME280;14852;51.910;8.878;2023-02-23T01:16:28;99398.00;;;12.18;61.25
26823;BME280;14852;51.910;8.878;2023-02-23T01:18:58;99393.75;;;12.17;61.36
26823;BME280;14852;51.910;8.878;2023-02-23T01:21:28;99389.38;;;12.17;61.58
26823;BME280;14852;51.910;8.878;2023-02-23T01:23:55;99390.00;;;12.21;61.79
26823;BME280;14852;51.910;8.878;2023-02-23T01:26:32;99390.63;;;12.24;61.15
26823;BME280;14852;51.910;8.878;2023-02-23T01:29:11;99396.66;;;12.25;61.14
26823;BME280;14852;51.910;8.878;2023-02-23T01:31:40;99386.25;;;12.25;61.60
26823;BME280;14852;51.910;8.878;2023-02-23T01:34:09;99383.66;;;12.25;61.47
26823;BME280;14852;51.910;8.878;2023-02-23T01:36:38;99386.16;;;12.26;61.13
26823;BME280;14852;51.910;8.878;2023-02-23T01:39:09;99384.28;;;12.28;61.60
26823;BME280;14852;51.910;8.878;2023-02-23T01:41:37;99380.75;;;12.29;61.20
26823;BME280;14852;51.910;8.878;2023-02-23T01:46:55;99391.91;;;12.31;61.32
26823;BME280;14852;51.910;8.878;2023-02-23T01:49:28;99388.28;;;12.34;61.37
26823;BME280;14852;51.910;8.878;2023-02-23T01:52:10;99388.16;;;12.36;61.14
26823;BME280;14852;51.910;8.878;2023-02-23T01:54:47;99387.31;;;12.35;61.05
26823;BME280;14852;51.910;8.878;2023-02-23T01:57:17;99390.97;;;12.32;61.39
26823;BME280;14852;51.910;8.878;2023-02-23T01:59:47;99390.97;;;12.32;61.37
26823;BME280;14852;51.910;8.878;2023-02-23T02:02:20;99393.69;;;12.31;61.48
26823;BME280;14852;51.910;8.878;2023-02-23T02:04:47;99390.34;;;12.29;61.54
26823;BME280;14852;51.910;8.878;2023-02-23T02:07:26;99394.63;;;12.30;61.44
26823;BME280;14852;51.910;8.878;2023-02-23T02:09:56;99394.72;;;12.28;61.45
26823;BME280;14852;51.910;8.878;2023-02-23T02:12:50;99392.09;;;12.28;61.35
26823;BME280;14852;51.910;8.878;2023-02-23T02:15:17;99383.56;;;12.26;61.56
26823;BME280;14852;51.910;8.878;2023-02-23T02:21:02;99387.00;;;12.27;61.72
26823;BME280;14852;51.910;8.878;2023-02-23T02:41:16;99377.91;;;12.20;61.82
26823;BME280;14852;51.910;8.878;2023-02-23T02:44:16;99373.53;;;12.20;61.62
26823;BME280;14852;51.910;8.878;2023-02-23T02:46:49;99376.06;;;12.22;61.73
26823;BME280;14852;51.910;8.878;2023-02-23T02:49:30;99373.31;;;12.23;61.94
26823;BME280;14852;51.910;8.878;2023-02-23T02:52:03;99373.22;;;12.25;61.60
26823;BME280;14852;51.910;8.878;2023-02-23T02:54:42;99375.63;;;12.28;61.68
26823;BME280;14852;51.910;8.878;2023-02-23T02:57:11;99370.53;;;12.26;61.78
26823;BME280;14852;51.910;8.878;2023-02-23T02:59:46;99366.06;;;12.28;61.72
26823;BME280;14852;51.910;8.878;2023-02-23T03:02:33;99365.22;;;12.28;61.45
26823;BME280;14852;51.910;8.878;2023-02-23T03:05:23;99367.81;;;12.28;61.76
26823;BME280;14852;51.910;8.878;2023-02-23T03:11:11;99359.19;;;12.27;61.60
26823;BME280;14852;51.910;8.878;2023-02-23T03:14:32;99352.19;;;12.28;61.83
26823;BME280;14852;51.910;8.878;2023-02-23T03:17:38;99358.25;;;12.28;61.70
26823;BME280;14852;51.910;8.878;2023-02-23T03:20:49;99366.06;;;12.28;61.71
26823;BME280;14852;51.910;8.878;2023-02-23T03:24:19;99361.59;;;12.30;61.82
26823;BME280;14852;51.910;8.878;2023-02-23T03:30:53;99364.94;;;12.32;61.70
26823;BME280;14852;51.910;8.878;2023-02-23T03:34:16;99362.31;;;12.32;61.91
26823;BME280;14852;51.910;8.878;2023-02-23T03:37:27;99363.16;;;12.33;61.77
26823;BME280;14852;51.910;8.878;2023-02-23T03:40:32;99360.66;;;12.31;61.71
26823;BME280;14852;51.910;8.878;2023-02-23T03:43:24;99359.06;;;12.29;61.47
26823;BME280;14852;51.910;8.878;2023-02-23T03:46:11;99355.63;;;12.28;61.86
26823;BME280;14852;51.910;8.878;2023-02-23T03:49:00;99359.91;;;12.29;61.76
26823;BME280;14852;51.910;8.878;2023-02-23T03:51:54;99357.22;;;12.31;61.90
26823;BME280;14852;51.910;8.878;2023-02-23T03:54:48;99364.00;;;12.33;61.90
26823;BME280;14852;51.910;8.878;2023-02-23T03:57:36;99366.69;;;12.32;61.86
26823;BME280;14852;51.910;8.878;2023-02-23T04:00:38;99363.16;;;12.33;61.73
26823;BME280;14852;51.910;8.878;2023-02-23T04:03:26;99360.66;;;12.31;61.81
26823;BME280;14852;51.910;8.878;2023-02-23T04:06:16;99364.19;;;12.30;62.06
26823;BME280;14852;51.910;8.878;2023-02-23T04:09:04;99363.34;;;12.30;62.10
26823;BME280;14852;51.910;8.878;2023-02-23T04:11:53;99366.06;;;12.28;61.93
26823;BME280;14852;51.910;8.878;2023-02-23T04:14:50;99364.19;;;12.30;62.11
26823;BME280;14852;51.910;8.878;2023-02-23T04:17:22;99361.88;;;12.26;62.21
26823;BME280;14852;51.910;8.878;2023-02-23T04:19:53;99364.78;;;12.21;62.03
26823;BME280;14852;51.910;8.878;2023-02-23T04:22:20;99366.84;;;12.16;62.70
26823;BME280;14852;51.910;8.878;2023-02-23T04:24:47;99359.31;;;12.12;62.79
26823;BME280;14852;51.910;8.878;2023-02-23T04:27:13;99368.28;;;12.08;62.45
26823;BME280;14852;51.910;8.878;2023-02-23T04:29:39;99371.19;;;12.03;62.82
26823;BME280;14852;51.910;8.878;2023-02-23T04:32:06;99368.66;;;12.02;62.87
26823;BME280;14852;51.910;8.878;2023-02-23T04:34:35;99366.81;;;12.04;62.99
26823;BME280;14852;51.910;8.878;2023-02-23T04:37:01;99366.81;;;12.04;62.88
26823;BME280;14852;51.910;8.878;2023-02-23T04:39:26;99374.63;;;12.04;63.11
26823;BME280;14852;51.910;8.878;2023-02-23T04:41:52;99371.28;;;12.02;62.88
26823;BME280;14852;51.910;8.878;2023-02-23T04:44:18;99378.38;;;12.00;62.87
26823;BME280;14852;51.910;8.878;2023-02-23T04:46:44;99370.56;;;12.00;63.25
26823;BME280;14852;51.910;8.878;2023-02-23T04:49:10;99375.03;;;11.98;63.17
26823;BME280;14852;51.910;8.878;2023-02-23T04:51:35;99377.63;;;11.98;63.20
26823;BME280;14852;51.910;8.878;2023-02-23T04:54:03;99375.88;;;11.98;63.13
26823;BME280;14852;51.910;8.878;2023-02-23T04:56:29;99378.38;;;12.00;63.02
26823;BME280;14852;51.910;8.878;2023-02-23T04:58:55;99373.78;;;12.03;62.83
26823;BME280;14852;51.910;8.878;2023-02-23T05:01:21;99374.53;;;12.05;62.96
26823;BME280;14852;51.910;8.878;2023-02-23T05:03:50;99371.72;;;12.08;62.69
26823;BME280;14852;51.910;8.878;2023-02-23T05:06:17;99376.19;;;12.06;62.88
26823;BME280;14852;51.910;8.878;2023-02-23T05:08:43;99373.03;;;12.01;63.25
26823;BME280;14852;51.910;8.878;2023-02-23T05:11:10;99382.09;;;11.95;63.06
26823;BME280;14852;51.910;8.878;2023-02-23T05:13:37;99379.78;;;11.91;63.17
26823;BME280;14852;51.910;8.878;2023-02-23T05:16:03;99376.44;;;11.89;63.06
26823;BME280;14852;51.910;8.878;2023-02-23T05:18:29;99375.59;;;11.88;63.37
26823;BME280;14852;51.910;8.878;2023-02-23T05:21:04;99379.03;;;11.89;63.66
26823;BME280;14852;51.910;8.878;2023-02-23T05:23:33;99378.09;;;11.90;63.62
26823;BME280;14852;51.910;8.878;2023-02-23T05:26:08;99384.25;;;11.89;63.42
26823;BME280;14852;51.910;8.878;2023-02-23T05:28:37;99374.03;;;11.86;63.14
26823;BME280;14852;51.910;8.878;2023-02-23T05:31:04;99373.41;;;11.82;63.54
26823;BME280;14852;51.910;8.878;2023-02-23T05:33:31;99376.75;;;11.84;63.56
26823;BME280;14852;51.910;8.878;2023-02-23T05:35:57;99374.97;;;11.85;63.70
26823;BME280;14852;51.910;8.878;2023-02-23T05:38:26;99370.50;;;11.87;63.46
26823;BME280;14852;51.910;8.878;2023-02-23T05:40:52;99367.69;;;11.90;63.48
26823;BME280;14852;51.910;8.878;2023-02-23T05:43:18;99384.06;;;11.92;63.14
26823;BME280;14852;51.910;8.878;2023-02-23T05:45:44;99379.88;;;11.89;63.57
26823;BME280;14852;51.910;8.878;2023-02-23T05:48:11;99375.72;;;11.87;63.61
26823;BME280;14852;51.910;8.878;2023-02-23T05:50:37;99379.25;;;11.86;63.38
26823;BME280;14852;51.910;8.878;2023-02-23T05:53:03;99381.94;;;11.84;63.75
26823;BME280;14852;51.910;8.878;2023-02-23T05:55:29;99378.59;;;11.82;63.43
26823;BME280;14852;51.910;8.878;2023-02-23T05:57:55;99382.03;;;11.83;63.97
26823;BME280;14852;51.910;8.878;2023-02-23T06:00:21;99381.19;;;11.82;63.88
26823;BME280;14852;51.910;8.878;2023-02-23T06:02:48;99383.06;;;11.80;63.78
26823;BME280;14852;51.910;8.878;2023-02-23T06:05:17;99381.28;;;11.81;63.54
26823;BME280;14852;51.910;8.878;2023-02-23T06:07:42;99382.22;;;11.80;64.04
26823;BME280;14852;51.910;8.878;2023-02-23T06:10:09;99379.63;;;11.80;63.72
26823;BME280;14852;51.910;8.878;2023-02-23T06:12:35;99382.22;;;11.80;64.13
26823;BME280;14852;51.910;8.878;2023-02-23T06:15:01;99385.66;;;11.80;64.00
26823;BME280;14852;51.910;8.878;2023-02-23T06:17:26;99385.97;;;11.76;63.83
26823;BME280;14852;51.910;8.878;2023-02-23T06:19:52;99386.03;;;11.74;64.00
26823;BME280;14852;51.910;8.878;2023-02-23T06:22:18;99392.16;;;11.73;64.02
26823;BME280;14852;51.910;8.878;2023-02-23T06:24:44;99385.97;;;11.76;63.82
26823;BME280;14852;51.910;8.878;2023-02-23T06:27:10;99387.53;;;11.78;63.96
26823;BME280;14852;51.910;8.878;2023-02-23T06:29:36;99382.97;;;11.82;63.88
26823;BME280;14852;51.910;8.878;2023-02-23T06:32:03;99381.00;;;11.85;63.63
26823;BME280;14852;51.910;8.878;2023-02-23T06:34:29;99387.91;;;11.86;63.84
26823;BME280;14852;51.910;8.878;2023-02-23T06:36:57;99391.22;;;11.88;63.95
26823;BME280;14852;51.910;8.878;2023-02-23T06:39:23;99398.84;;;11.91;63.94
26823;BME280;14852;51.910;8.878;2023-02-23T06:41:49;99400.50;;;11.92;63.64
26823;BME280;14852;51.910;8.878;2023-02-23T06:44:14;99401.34;;;11.93;63.70
26823;BME280;14852;51.910;8.878;2023-02-23T06:46:40;99404.88;;;11.92;63.43
26823;BME280;14852;51.910;8.878;2023-02-23T06:49:06;99417.91;;;11.92;64.08
26823;BME280;14852;51.910;8.878;2023-02-23T06:51:32;99411.09;;;11.89;63.69
26823;BME280;14852;51.910;8.878;2023-02-23T06:53:57;99410.41;;;11.87;63.75
26823;BME280;14852;51.910;8.878;2023-02-23T06:56:23;99419.97;;;11.87;63.95
26823;BME280;14852;51.910;8.878;2023-02-23T06:58:49;99425.28;;;11.85;63.89
26823;BME280;14852;51.910;8.878;2023-02-23T07:01:16;99424.44;;;11.85;64.08
26823;BME280;14852;51.910;8.878;2023-02-23T07:03:43;99426.19;;;11.84;63.77
26823;BME280;14852;51.910;8.878;2023-02-23T07:06:08;99426.19;;;11.84;64.26
26823;BME280;14852;51.910;8.878;2023-02-23T07:08:34;99429.63;;;11.85;64.16
26823;BME280;14852;51.910;8.878;2023-02-23T07:11:10;99428.63;;;11.87;63.83
26823;BME280;14852;51.910;8.878;2023-02-23T07:13:38;99440.06;;;11.85;63.87
26823;BME280;14852;51.910;8.878;2023-02-23T07:16:05;99429.63;;;11.85;63.76
26823;BME280;14852;51.910;8.878;2023-02-23T07:18:30;99447.22;;;11.81;64.33
26823;BME280;14852;51.910;8.878;2023-02-23T07:20:56;99442.84;;;11.82;64.25
26823;BME280;14852;51.910;8.878;2023-02-23T07:23:22;99441.91;;;11.83;64.13
26823;BME280;14852;51.910;8.878;2023-02-23T07:25:52;99449.44;;;11.87;64.07
26823;BME280;14852;51.910;8.878;2023-02-23T07:28:21;99448.69;;;11.85;64.15
26823;BME280;14852;51.910;8.878;2023-02-23T07:30:47;99445.25;;;11.85;64.48
26823;BME280;14852;51.910;8.878;2023-02-23T07:33:15;99452.13;;;11.86;64.34
26823;BME280;14852;51.910;8.878;2023-02-23T07:35:40;99457.34;;;11.86;63.88
26823;BME280;14852;51.910;8.878;2023-02-23T07:38:07;99450.38;;;11.86;64.09
26823;BME280;14852;51.910;8.878;2023-02-23T07:40:33;99453.69;;;11.88;63.98
26823;BME280;14852;51.910;8.878;2023-02-23T07:42:59;99448.41;;;11.90;64.37
26823;BME280;14852;51.910;8.878;2023-02-23T07:45:25;99453.41;;;11.93;64.13
26823;BME280;14852;51.910;8.878;2023-02-23T07:47:51;99457.69;;;11.94;64.16
26823;BME280;14852;51.910;8.878;2023-02-23T07:50:17;99453.31;;;11.94;64.29
26823;BME280;14852;51.910;8.878;2023-02-23T07:52:44;99458.44;;;11.96;64.54
26823;BME280;14852;51.910;8.878;2023-02-23T07:55:10;99459.28;;;11.96;64.18
26823;BME280;14852;51.910;8.878;2023-02-23T07:57:36;99461.69;;;12.00;64.25
26823;BME280;14852;51.910;8.878;2023-02-23T08:00:05;99456.28;;;12.03;64.40
26823;BME280;14852;51.910;8.878;2023-02-23T08:02:38;99451.06;;;12.03;63.99
26823;BME280;14852;51.910;8.878;2023-02-23T08:05:04;99453.56;;;12.04;64.17
26823;BME280;14852;51.910;8.878;2023-02-23T08:07:32;99457.94;;;12.04;64.11
26823;BME280;14852;51.910;8.878;2023-02-23T08:09:58;99464.91;;;12.03;64.04
26823;BME280;14852;51.910;8.878;2023-02-23T08:12:24;99463.91;;;12.06;64.25
26823;BME280;14852;51.910;8.878;2023-02-23T08:14:49;99467.25;;;12.08;64.11
26823;BME280;14852;51.910;8.878;2023-02-23T08:17:15;99456.66;;;12.11;64.37
26823;BME280;14852;51.910;8.878;2023-02-23T08:19:41;99460.81;;;12.13;64.36
26823;BME280;14852;51.910;8.878;2023-02-23T08:22:07;99456.44;;;12.14;64.10
26823;BME280;14852;51.910;8.878;2023-02-23T08:24:33;99462.47;;;12.14;64.16
26823;BME280;14852;51.910;8.878;2023-02-23T08:27:01;99460.72;;;12.15;64.47
26823;BME280;14852;51.910;8.878;2023-02-23T08:29:27;99463.41;;;12.13;64.17
26823;BME280;14852;51.910;8.878;2023-02-23T08:31:53;99472.16;;;12.12;64.52
26823;BME280;14852;51.910;8.878;2023-02-23T08:34:21;99466.84;;;12.14;64.21
26823;BME280;14852;51.910;8.878;2023-02-23T08:36:48;99470.09;;;12.17;64.42
26823;BME280;14852;51.910;8.878;2023-02-23T08:39:14;99466.56;;;12.18;64.12
26823;BME280;14852;51.910;8.878;2023-02-23T08:41:40;99467.22;;;12.22;64.49
26823;BME280;14852;51.910;8.878;2023-02-23T08:44:07;99467.66;;;12.28;64.34
26823;BME280;14852;51.910;8.878;2023-02-23T08:46:33;99475.91;;;12.35;64.01
26823;BME280;14852;51.910;8.878;2023-02-23T08:48:59;99474.78;;;12.39;63.98
26823;BME280;14852;51.910;8.878;2023-02-23T08:51:24;99474.59;;;12.42;64.20
26823;BME280;14852;51.910;8.878;2023-02-23T08:53:50;99473.25;;;12.49;64.24
26823;BME280;14852;51.910;8.878;2023-02-23T08:56:16;99473.81;;;12.54;64.36
26823;BME280;14852;51.910;8.878;2023-02-23T08:58:42;99471.94;;;12.56;64.04
26823;BME280;14852;51.910;8.878;2023-02-23T09:01:18;99478.59;;;12.60;64.25
26823;BME280;14852;51.910;8.878;2023-02-23T09:03:46;99477.47;;;12.64;63.64
26823;BME280;14852;51.910;8.878;2023-02-23T09:06:17;99477.28;;;12.67;64.05
26823;BME280;14852;51.910;8.878;2023-02-23T09:08:43;99481.56;;;12.68;63.74
26823;BME280;14852;51.910;8.878;2023-02-23T09:11:09;99481.44;;;12.70;63.79
26823;BME280;14852;51.910;8.878;2023-02-23T09:13:35;99484.88;;;12.70;64.01
26823;BME280;14852;51.910;8.878;2023-02-23T09:16:01;99484.03;;;12.70;64.32
26823;BME280;14852;51.910;8.878;2023-02-23T09:18:28;99485.81;;;12.69;63.99
26823;BME280;14852;51.910;8.878;2023-02-23T09:20:56;99493.53;;;12.71;64.39
26823;BME280;14852;51.910;8.878;2023-02-23T09:23:22;99490.84;;;12.73;63.97
26823;BME280;14852;51.910;8.878;2023-02-23T09:25:48;99495.75;;;12.77;64.08
26823;BME280;14852;51.910;8.878;2023-02-23T09:28:17;99489.38;;;12.81;64.31
26823;BME280;14852;51.910;8.878;2023-02-23T09:30:44;99490.97;;;12.84;64.00
26823;BME280;14852;51.910;8.878;2023-02-23T09:33:12;99485.56;;;12.87;63.90
26823;BME280;14852;51.910;8.878;2023-02-23T09:35:39;99486.28;;;12.89;63.80
26823;BME280;14852;51.910;8.878;2023-02-23T09:38:06;99495.69;;;12.91;64.25
26823;BME280;14852;51.910;8.878;2023-02-23T09:40:45;99491.94;;;12.95;63.73
26823;BME280;14852;51.910;8.878;2023-02-23T09:45:53;99492.66;;;12.97;64.13
26823;BME280;14852;51.910;8.878;2023-02-23T09:48:26;99496.94;;;12.98;64.07
26823;BME280;14852;51.910;8.878;2023-02-23T09:50:55;99487.25;;;13.00;63.91
26823;BME280;14852;51.910;8.878;2023-02-23T09:53:50;99495.59;;;13.05;63.68
26823;BME280;14852;51.910;8.878;2023-02-23T09:56:35;99498.19;;;13.05;63.83
26823;BME280;14852;51.910;8.878;2023-02-23T09:59:03;99503.66;;;13.02;63.82
26823;BME280;14852;51.910;8.878;2023-02-23T10:01:51;99502.59;;;13.05;63.67
26823;BME280;14852;51.910;8.878;2023-02-23T10:10:29;99507.09;;;13.03;64.05
26823;BME280;14852;51.910;8.878;2023-02-23T10:16:36;99506.13;;;13.04;64.07
26823;BME280;14852;51.910;8.878;2023-02-23T10:19:28;99504.56;;;13.01;63.70
26823;BME280;14852;51.910;8.878;2023-02-23T10:22:02;99511.84;;;12.96;64.20
26823;BME280;14852;51.910;8.878;2023-02-23T10:24:56;99515.50;;;12.94;64.01
26823;BME280;14852;51.910;8.878;2023-02-23T10:27:31;99514.25;;;12.87;64.06
26823;BME280;14852;51.910;8.878;2023-02-23T10:30:03;99519.75;;;12.82;64.08
26823;BME280;14852;51.910;8.878;2023-02-23T10:33:13;99523.00;;;12.86;64.04
26823;BME280;14852;51.910;8.878;2023-02-23T10:35:42;99519.03;;;12.80;64.13
26823;BME280;14852;51.910;8.878;2023-02-23T10:38:14;99524.97;;;12.82;64.19
26823;BME280;14852;51.910;8.878;2023-02-23T10:40:42;99526.00;;;12.80;64.33
26823;BME280;14852;51.910;8.878;2023-02-23T10:43:11;99523.59;;;12.77;64.10
26823;BME280;14852;51.910;8.878;2023-02-23T10:45:47;99520.34;;;12.73;64.35
26823;BME280;14852;51.910;8.878;2023-02-23T10:48:24;99528.25;;;12.72;64.12
26823;BME280;14852;51.910;8.878;2023-02-23T10:50:56;99525.75;;;12.70;64.48
26823;BME280;14852;51.910;8.878;2023-02-23T10:53:33;99523.38;;;12.67;64.28
26823;BME280;14852;51.910;8.878;2023-02-23T10:56:10;99522.53;;;12.66;64.54
26823;BME280;14852;51.910;8.878;2023-02-23T10:59:00;99521.69;;;12.66;64.12
26823;BME280;14852;51.910;8.878;2023-02-23T11:01:39;99525.31;;;12.63;64.19
26823;BME280;14852;51.910;8.878;2023-02-23T11:04:30;99522.06;;;12.60;64.24
26823;BME280;14852;51.910;8.878;2023-02-23T11:07:08;99523.13;;;12.57;64.65
26823;BME280;14852;51.910;8.878;2023-02-23T11:09:34;99525.00;;;12.55;64.34
26823;BME280;14852;51.910;8.878;2023-02-23T11:12:25;99524.91;;;12.57;64.59
26823;BME280;14852;51.910;8.878;2023-02-23T11:14:56;99524.25;;;12.53;64.60
26823;BME280;14852;51.910;8.878;2023-02-23T11:17:35;99518.09;;;12.54;64.58
26823;BME280;14852;51.910;8.878;2023-02-23T11:20:37;99520.63;;;12.56;64.71
26823;BME280;14852;51.910;8.878;2023-02-23T11:23:33;99521.44;;;12.56;64.46
26823;BME280;14852;51.910;8.878;2023-02-23T11:26:18;99518.19;;;12.53;64.66
26823;BME280;14852;51.910;8.878;2023-02-23T11:28:52;99518.28;;;12.51;64.37
26823;BME280;14852;51.910;8.878;2023-02-23T11:31:22;99515.78;;;12.50;64.33
26823;BME280;14852;51.910;8.878;2023-02-23T11:33:53;99511.50;;;12.49;64.59
26823;BME280;14852;51.910;8.878;2023-02-23T11:39:20;99517.16;;;12.55;64.69
26823;BME280;14852;51.910;8.878;2023-02-23T11:42:18;99514.56;;;12.55;64.93
26823;BME280;14852;51.910;8.878;2023-02-23T11:47:27;99514.47;;;12.57;64.50
26823;BME280;14852;51.910;8.878;2023-02-23T11:49:54;99504.88;;;12.57;64.59
26823;BME280;14852;51.910;8.878;2023-02-23T11:52:23;99513.31;;;12.61;64.69
26823;BME280;14852;51.910;8.878;2023-02-23T11:55:14;99505.31;;;12.64;64.73
26823;BME280;14852;51.910;8.878;2023-02-23T11:57:40;99506.34;;;12.61;64.83
26823;BME280;14852;51.910;8.878;2023-02-23T12:00:19;99506.25;;;12.63;64.49
26823;BME280;14852;51.910;8.878;2023-02-23T12:02:51;99503.72;;;12.61;64.54
26823;BME280;14852;51.910;8.878;2023-02-23T12:05:23;99508.84;;;12.63;64.96
26823;BME280;14852;51.910;8.878;2023-02-23T12:08:03;99503.53;;;12.64;64.76
26823;BME280;14852;51.910;8.878;2023-02-23T12:10:45;99494.78;;;12.65;64.49
26823;BME280;14852;51.910;8.878;2023-02-23T12:14:19;99496.38;;;12.68;64.66
26823;BME280;14852;51.910;8.878;2023-02-23T12:16:32;99499.81;;;12.68;64.35
26823;BME280;14852;51.910;8.878;2023-02-23T12:19:27;99492.81;;;12.69;64.59
26823;BME280;14852;51.910;8.878;2023-02-23T12:22:14;99502.28;;;12.70;64.54
26823;BME280;14852;51.910;8.878;2023-02-23T12:25:00;99495.44;;;12.69;64.46
26823;BME280;14852;51.910;8.878;2023-02-23T12:27:44;99493.84;;;12.66;64.91
26823;BME280;14852;51.910;8.878;2023-02-23T12:30:30;99494.97;;;12.62;65.00
26823;BME280;14852;51.910;8.878;2023-02-23T12:33:36;99494.03;;;12.63;64.76
26823;BME280;14852;51.910;8.878;2023-02-23T12:36:18;99491.53;;;12.62;64.60
26823;BME280;14852;51.910;8.878;2023-02-23T12:39:31;99486.03;;;12.66;64.81
26823;BME280;14852;51.910;8.878;2023-02-23T12:42:29;99481.75;;;12.65;64.74
26823;BME280;14852;51.910;8.878;2023-02-23T12:45:02;99483.34;;;12.68;64.35
26823;BME280;14852;51.910;8.878;2023-02-23T12:47:46;99473.53;;;12.72;64.13
26823;BME280;14852;51.910;8.878;2023-02-23T12:50:39;99476.56;;;12.78;64.38
26823;BME280;14852;51.910;8.878;2023-02-23T12:53:37;99478.56;;;12.87;64.36
26823;BME280;14852;51.910;8.878;2023-02-23T12:56:38;99477.31;;;12.93;64.48
26823;BME280;14852;51.910;8.878;2023-02-23T13:05:29;99493.44;;;13.12;64.00
26823;BME280;14852;51.910;8.878;2023-02-23T13:10:54;99493.78;;;13.20;64.02
26823;BME280;14852;51.910;8.878;2023-02-23T13:16:34;99493.72;;;13.07;64.20
26823;BME280;14852;51.910;8.878;2023-02-23T13:19:43;99487.56;;;12.96;64.29
26823;BME280;14852;51.910;8.878;2023-02-23T13:28:03;99496.47;;;12.66;64.73
26823;BME280;14852;51.910;8.878;2023-02-23T13:30:31;99490.59;;;12.63;64.96
26823;BME280;14852;51.910;8.878;2023-02-23T13:33:12;99493.31;;;12.61;64.80
26823;BME280;14852;51.910;8.878;2023-02-23T13:35:40;99490.69;;;12.61;64.58
26823;BME280;14852;51.910;8.878;2023-02-23T13:38:19;99491.00;;;12.57;64.59
26823;BME280;14852;51.910;8.878;2023-02-23T13:41:26;99485.16;;;12.53;64.78
26823;BME280;14852;51.910;8.878;2023-02-23T13:44:50;99491.41;;;12.51;64.83
26823;BME280;14852;51.910;8.878;2023-02-23T13:47:55;99493.25;;;12.49;64.92
26823;BME280;14852;51.910;8.878;2023-02-23T13:53:46;99490.66;;;12.49;64.97
26823;BME280;14852;51.910;8.878;2023-02-23T13:56:24;99496.50;;;12.52;64.76
26823;BME280;14852;51.910;8.878;2023-02-23T13:59:07;99491.84;;;12.57;64.53
26823;BME280;14852;51.910;8.878;2023-02-23T14:01:38;99495.06;;;12.61;64.55
26823;BME280;14852;51.910;8.878;2023-02-23T14:04:14;99493.94;;;12.65;64.62
26823;BME280;14852;51.910;8.878;2023-02-23T14:09:31;99491.88;;;12.70;64.44
26823;BME280;14852;51.910;8.878;2023-02-23T14:12:34;99490.75;;;12.74;64.91
26823;BME280;14852;51.910;8.878;2023-02-23T14:21:12;99500.88;;;12.79;64.79
26823;BME280;14852;51.910;8.878;2023-02-23T14:34:58;99504.59;;;12.75;65.05
26823;BME280;14852;51.910;8.878;2023-02-23T14:42:40;99506.25;;;12.63;65.23
26823;BME280;14852;51.910;8.878;2023-02-23T14:45:23;99502.81;;;12.62;64.79
26823;BME280;14852;51.910;8.878;2023-02-23T14:47:54;99508.28;;;12.58;64.69
26823;BME280;14852;51.910;8.878;2023-02-23T14:50:33;99506.66;;;12.57;64.91
26823;BME280;14852;51.910;8.878;2023-02-23T14:53:00;99508.72;;;12.52;64.98
26823;BME280;14852;51.910;8.878;2023-02-23T14:55:33;99512.16;;;12.52;64.89
26823;BME280;14852;51.910;8.878;2023-02-23T14:58:25;99518.19;;;12.53;65.08
26823;BME280;14852;51.910;8.878;2023-02-23T15:00:51;99513.16;;;12.50;65.05
26823;BME280;14852;51.910;8.878;2023-02-23T15:03:17;99507.13;;;12.49;65.06
26823;BME280;14852;51.910;8.878;2023-02-23T15:05:46;99505.53;;;12.47;64.77
26823;BME280;14852;51.910;8.878;2023-02-23T15:08:22;99515.25;;;12.45;64.88
26823;BME280;14852;51.910;8.878;2023-02-23T15:11:01;99512.09;;;12.40;64.69
26823;BME280;14852;51.910;8.878;2023-02-23T15:13:34;99517.91;;;12.30;64.60